Time;durP1;ratioP1;P1;durP2;ratioP2;P2;SDS_P1;SDS_P2;PMS_P1;PMS_P2;Temp;Humidity;BMP_temperature;BMP_pressure;BME280_temperature;BME280_humidity;BME280_pressure;Samples;Min_cycle;Max_cycle;Signal;HPM_P1;HPM_P2
2023/08/30 00:01:02;;;;;;;4.90;3.10;;;14.50;99.90;;;;;;4988206;28;20452;-62
2023/08/30 00:03:29;;;;;;;2.90;2.70;;;14.40;99.90;;;;;;4988839;28;20462;-62
2023/08/30 00:05:56;;;;;;;3.10;2.90;;;14.40;99.90;;;;;;4986647;28;20954;-62
2023/08/30 00:08:23;;;;;;;4.40;2.80;;;14.40;99.90;;;;;;4988920;28;20482;-62
2023/08/30 00:10:51;;;;;;;3.00;2.80;;;14.30;99.90;;;;;;4989104;28;20542;-62
2023/08/30 00:13:19;;;;;;;6.07;4.73;;;14.30;99.90;;;;;;4989044;28;20455;-62
2023/08/30 00:15:46;;;;;;;4.13;3.83;;;14.30;99.90;;;;;;4988568;28;20456;-61
2023/08/30 00:18:12;;;;;;;3.80;3.60;;;14.20;99.90;;;;;;4988096;28;20472;-62
2023/08/30 00:20:39;;;;;;;3.10;2.90;;;14.20;99.90;;;;;;4993280;28;20457;-62
2023/08/30 00:23:06;;;;;;;6.10;3.87;;;14.20;99.90;;;;;;5027989;28;20450;-62
2023/08/30 00:25:33;;;;;;;4.03;3.63;;;14.20;99.90;;;;;;5027806;28;20490;-62
2023/08/30 00:28:00;;;;;;;3.73;3.43;;;14.10;99.90;;;;;;5027103;28;20479;-62
2023/08/30 00:30:28;;;;;;;3.33;3.03;;;14.10;99.90;;;;;;5027791;28;20444;-62
2023/08/30 00:32:55;;;;;;;3.67;3.43;;;14.10;99.90;;;;;;5028068;28;20449;-62
2023/08/30 00:35:21;;;;;;;4.10;3.70;;;14.10;99.90;;;;;;5027807;28;20448;-62
2023/08/30 00:37:48;;;;;;;4.70;3.10;;;14.00;99.90;;;;;;5027333;28;20503;-62
2023/08/30 00:40:15;;;;;;;5.37;3.63;;;14.00;99.90;;;;;;5027896;28;20448;-62
2023/08/30 00:42:42;;;;;;;3.70;3.40;;;14.00;99.90;;;;;;5027819;28;20456;-62
2023/08/30 00:45:09;;;;;;;4.07;3.80;;;14.00;99.90;;;;;;5027729;28;21171;-62
2023/08/30 00:47:37;;;;;;;6.87;3.57;;;13.90;99.90;;;;;;5027129;28;20583;-62
2023/08/30 00:50:06;;;;;;;4.40;4.13;;;13.90;99.90;;;;;;5027849;28;20461;-62
2023/08/30 00:52:32;;;;;;;3.23;3.03;;;13.90;99.90;;;;;;5027522;28;20456;-62
2023/08/30 00:55:00;;;;;;;9.13;3.77;;;13.90;99.90;;;;;;5028694;28;20441;-62
2023/08/30 00:57:27;;;;;;;6.03;4.33;;;13.90;99.90;;;;;;5030351;28;20483;-62
2023/08/30 00:59:55;;;;;;;4.77;4.43;;;13.80;99.90;;;;;;5031577;28;20455;-62
2023/08/30 01:02:22;;;;;;;7.27;5.00;;;13.80;99.90;;;;;;5031524;28;21041;-62
2023/08/30 01:04:50;;;;;;;4.50;3.70;;;13.80;99.90;;;;;;5031176;28;20492;-62
2023/08/30 01:07:19;;;;;;;5.20;4.80;;;13.80;99.90;;;;;;5028674;28;20472;-62
2023/08/30 01:09:45;;;;;;;8.13;3.90;;;13.80;99.90;;;;;;5031164;28;20884;-62
2023/08/30 01:12:18;;;;;;;5.73;5.33;;;13.80;99.90;;;;;;5031203;28;20556;-62
2023/08/30 01:14:53;;;;;;;6.50;4.57;;;13.80;99.90;;;;;;5031217;28;20994;-62
2023/08/30 01:17:20;;;;;;;5.37;4.83;;;13.80;99.90;;;;;;5030303;28;20551;-62
2023/08/30 01:19:55;;;;;;;4.87;4.37;;;13.70;99.90;;;;;;5031119;28;20953;-62
2023/08/30 01:22:30;;;;;;;4.73;3.80;;;13.70;99.90;;;;;;5030863;28;20495;-62
2023/08/30 01:25:13;;;;;;;5.00;4.70;;;13.70;99.90;;;;;;5031217;28;20603;-62
2023/08/30 01:27:43;;;;;;;5.17;4.77;;;13.60;99.90;;;;;;5030288;28;20553;-62
2023/08/30 01:30:11;;;;;;;5.67;4.90;;;13.60;99.90;;;;;;5030812;28;20460;-62
2023/08/30 01:32:39;;;;;;;5.07;4.57;;;13.50;99.90;;;;;;5030736;28;20452;-62
2023/08/30 01:35:08;;;;;;;6.23;5.10;;;13.50;99.90;;;;;;5030697;28;21028;-62
2023/08/30 01:37:36;;;;;;;7.00;4.93;;;13.50;99.90;;;;;;5029775;28;20476;-62
2023/08/30 01:40:05;;;;;;;5.50;4.97;;;13.50;99.90;;;;;;5030591;28;20460;-62
2023/08/30 01:42:33;;;;;;;4.80;4.50;;;13.50;99.90;;;;;;5030547;28;20459;-63
2023/08/30 01:45:03;;;;;;;5.60;5.20;;;13.40;99.90;;;;;;5030309;28;20521;-62
2023/08/30 01:47:31;;;;;;;6.30;5.70;;;13.40;99.90;;;;;;5029565;28;20484;-62
2023/08/30 01:49:58;;;;;;;5.53;5.03;;;13.30;99.90;;;;;;5030333;28;20536;-62
2023/08/30 01:52:26;;;;;;;5.17;4.73;;;13.30;99.90;;;;;;5030544;28;20539;-62
2023/08/30 01:54:54;;;;;;;4.07;3.80;;;13.30;99.90;;;;;;5030396;28;20445;-62
2023/08/30 01:57:21;;;;;;;8.13;6.40;;;13.20;99.90;;;;;;5029597;28;20481;-62
2023/08/30 01:59:47;;;;;;;5.23;4.80;;;13.20;99.90;;;;;;5030269;28;20460;-62
2023/08/30 02:02:16;;;;;;;6.00;5.40;;;13.20;99.90;;;;;;5029952;28;20453;-62
2023/08/30 02:04:42;;;;;;;4.60;4.30;;;13.10;99.90;;;;;;5030081;28;20608;-62
2023/08/30 02:07:15;;;;;;;5.57;4.97;;;13.10;99.90;;;;;;5026981;28;20551;-62
2023/08/30 02:09:49;;;;;;;4.53;4.13;;;13.10;99.90;;;;;;5029954;28;21239;-62
2023/08/30 02:12:17;;;;;;;6.90;6.30;;;13.00;99.90;;;;;;5029926;28;20540;-63
2023/08/30 02:14:47;;;;;;;6.17;5.50;;;13.00;99.90;;;;;;5029896;28;20536;-62
2023/08/30 02:17:18;;;;;;;6.63;5.60;;;13.00;99.90;;;;;;5029218;28;20479;-62
2023/08/30 02:19:45;;;;;;;5.87;5.37;;;12.90;99.90;;;;;;5029921;28;20535;-62
2023/08/30 02:22:12;;;;;;;6.87;6.20;;;12.90;99.90;;;;;;5030030;28;20459;-62
2023/08/30 02:24:39;;;;;;;5.30;4.80;;;12.90;99.90;;;;;;5030039;28;20491;-62
2023/08/30 02:27:06;;;;;;;5.70;5.20;;;12.90;99.90;;;;;;5029264;28;20455;-62
2023/08/30 02:29:33;;;;;;;6.27;5.70;;;12.90;99.90;;;;;;5029683;28;20826;-62
2023/08/30 02:31:59;;;;;;;10.17;5.07;;;12.90;99.90;;;;;;5029560;28;20452;-62
2023/08/30 02:34:28;;;;;;;5.50;5.10;;;12.90;99.90;;;;;;5029528;28;20679;-62
2023/08/30 02:36:54;;;;;;;6.33;5.40;;;12.90;99.90;;;;;;5028473;28;20458;-62
2023/08/30 02:39:21;;;;;;;6.83;6.23;;;12.90;99.90;;;;;;5029632;28;20451;-62
2023/08/30 02:41:48;;;;;;;7.00;6.37;;;13.00;99.90;;;;;;5021960;28;21144;-62
2023/08/30 02:44:15;;;;;;;6.33;5.73;;;13.00;99.90;;;;;;5017009;28;20460;-62
2023/08/30 02:46:42;;;;;;;6.30;5.80;;;13.00;99.90;;;;;;5022305;28;20463;-62
2023/08/30 02:49:11;;;;;;;6.30;5.73;;;13.00;99.90;;;;;;5024691;28;20535;-62
2023/08/30 02:51:39;;;;;;;6.20;5.50;;;13.00;99.90;;;;;;5027485;28;20882;-62
2023/08/30 02:54:06;;;;;;;6.43;5.80;;;13.00;99.90;;;;;;5029567;28;20844;-62
2023/08/30 02:56:33;;;;;;;6.53;6.03;;;13.00;99.90;;;;;;5028265;28;20563;-62
2023/08/30 02:59:00;;;;;;;6.90;6.30;;;13.00;99.90;;;;;;5028852;28;20481;-62
2023/08/30 03:01:26;;;;;;;5.83;5.33;;;13.00;99.90;;;;;;5028995;28;20502;-62
2023/08/30 03:03:54;;;;;;;6.83;5.13;;;13.00;99.90;;;;;;5028709;28;20430;-62
2023/08/30 03:06:21;;;;;;;5.87;5.37;;;13.10;99.90;;;;;;5027224;28;20817;-62
2023/08/30 03:08:49;;;;;;;5.40;5.00;;;13.10;99.90;;;;;;5028784;28;20471;-62
2023/08/30 03:11:16;;;;;;;5.60;5.00;;;13.10;99.90;;;;;;5028967;28;21218;-63
2023/08/30 03:13:42;;;;;;;6.00;5.47;;;13.10;99.90;;;;;;5028742;28;20455;-62
2023/08/30 03:16:12;;;;;;;5.53;5.13;;;13.20;99.90;;;;;;5025102;28;20571;-63
2023/08/30 03:18:39;;;;;;;5.03;4.63;;;13.10;99.90;;;;;;5028299;28;20483;-62
2023/08/30 03:21:06;;;;;;;8.93;4.90;;;13.10;99.90;;;;;;5028968;28;20547;-62
2023/08/30 03:23:35;;;;;;;8.03;5.33;;;13.20;99.90;;;;;;5028548;28;20539;-62
2023/08/30 03:26:10;;;;;;;5.53;5.13;;;13.20;99.90;;;;;;5027631;28;21260;-63
2023/08/30 03:28:37;;;;;;;5.63;4.87;;;13.20;99.90;;;;;;5028524;28;20472;-62
2023/08/30 03:31:12;;;;;;;5.40;4.90;;;13.20;99.90;;;;;;5028534;28;20562;-62
2023/08/30 03:33:41;;;;;;;7.10;5.93;;;13.20;99.90;;;;;;5028569;28;20829;-62
2023/08/30 03:36:08;;;;;;;6.03;5.40;;;13.20;99.90;;;;;;5027492;28;20459;-62
2023/08/30 03:38:35;;;;;;;6.30;5.70;;;13.20;99.90;;;;;;5027967;28;20477;-62
2023/08/30 03:41:01;;;;;;;7.97;5.17;;;13.20;99.90;;;;;;5022190;28;20813;-62
2023/08/30 03:43:30;;;;;;;4.93;4.43;;;13.20;99.90;;;;;;5008646;28;20446;-62
2023/08/30 03:45:57;;;;;;;4.83;4.43;;;13.20;99.90;;;;;;5007872;28;20568;-62
2023/08/30 03:48:24;;;;;;;5.20;4.63;;;13.20;99.90;;;;;;5015545;28;20468;-63
2023/08/30 03:50:51;;;;;;;4.63;4.23;;;13.20;99.90;;;;;;5028121;28;20449;-62
2023/08/30 03:53:17;;;;;;;4.47;4.17;;;13.20;99.90;;;;;;5027995;28;20457;-62
2023/08/30 03:55:44;;;;;;;5.10;4.67;;;13.20;99.90;;;;;;5025888;28;20444;-62
2023/08/30 03:58:11;;;;;;;3.77;3.47;;;13.20;99.90;;;;;;5026960;28;20564;-63
2023/08/30 04:00:39;;;;;;;5.60;4.20;;;13.20;99.90;;;;;;5028248;28;20456;-63
2023/08/30 04:03:09;;;;;;;4.67;4.27;;;13.20;99.90;;;;;;5028211;28;20874;-63
2023/08/30 04:05:37;;;;;;;4.27;3.97;;;13.20;99.90;;;;;;5028272;28;20485;-63
2023/08/30 04:08:05;;;;;;;4.30;4.00;;;13.30;99.90;;;;;;5027304;28;20469;-62
2023/08/30 04:10:36;;;;;;;4.30;4.00;;;13.20;99.90;;;;;;5028097;28;21029;-63
2023/08/30 04:13:03;;;;;;;4.63;4.23;;;13.20;99.90;;;;;;5028133;28;20452;-62
2023/08/30 04:15:29;;;;;;;6.97;4.87;;;13.30;99.90;;;;;;5028059;28;20452;-62
2023/08/30 04:17:58;;;;;;;4.53;4.13;;;13.30;99.90;;;;;;5027269;28;20912;-62
2023/08/30 04:20:24;;;;;;;4.10;3.77;;;13.30;99.90;;;;;;5028047;28;20544;-63
2023/08/30 04:22:53;;;;;;;4.37;3.70;;;13.30;99.90;;;;;;5027913;28;20456;-62
2023/08/30 04:25:20;;;;;;;4.57;4.17;;;13.30;99.90;;;;;;5027931;28;20485;-63
2023/08/30 04:27:46;;;;;;;3.90;3.67;;;13.30;99.90;;;;;;5026951;28;20854;-63
2023/08/30 04:30:14;;;;;;;4.70;4.23;;;13.20;99.90;;;;;;5029664;28;20449;-63
2023/08/30 04:32:41;;;;;;;5.10;4.30;;;13.20;99.90;;;;;;5031931;28;20453;-62
2023/08/30 04:35:10;;;;;;;5.70;4.60;;;13.20;99.90;;;;;;5031880;28;20441;-63
2023/08/30 04:37:38;;;;;;;4.03;3.77;;;13.20;99.90;;;;;;5031012;28;20472;-62
2023/08/30 04:40:05;;;;;;;6.20;4.23;;;13.30;99.90;;;;;;5032060;28;20997;-63
2023/08/30 04:42:32;;;;;;;4.80;4.50;;;13.20;99.90;;;;;;5032076;28;20466;-63
2023/08/30 04:45:00;;;;;;;5.07;4.67;;;13.20;99.90;;;;;;5031612;28;20450;-63
2023/08/30 04:47:27;;;;;;;4.13;3.73;;;13.20;99.90;;;;;;5030822;28;20476;-63
2023/08/30 04:49:54;;;;;;;4.30;4.00;;;13.30;99.90;;;;;;5031422;28;20459;-63
2023/08/30 04:52:22;;;;;;;4.50;4.20;;;13.30;99.90;;;;;;5031124;28;20531;-63
2023/08/30 04:54:49;;;;;;;4.93;4.17;;;13.30;99.90;;;;;;5031532;28;20857;-63
2023/08/30 04:57:17;;;;;;;4.07;3.87;;;13.30;99.90;;;;;;5030326;28;20488;-63
2023/08/30 04:59:44;;;;;;;4.77;4.37;;;13.30;99.90;;;;;;5031235;28;21091;-63
2023/08/30 05:02:11;;;;;;;4.67;4.27;;;13.30;99.90;;;;;;5031280;28;20540;-63
2023/08/30 05:04:38;;;;;;;5.13;4.73;;;13.30;99.90;;;;;;5031142;28;20968;-63
2023/08/30 05:07:05;;;;;;;5.33;4.10;;;13.30;99.90;;;;;;5030612;28;20489;-63
2023/08/30 05:09:34;;;;;;;4.33;4.03;;;13.30;99.90;;;;;;5031561;28;20482;-63
2023/08/30 05:12:02;;;;;;;4.67;4.30;;;13.40;99.90;;;;;;5031435;28;20461;-63
2023/08/30 05:14:28;;;;;;;5.10;4.70;;;13.40;99.90;;;;;;5031084;28;20457;-63
2023/08/30 05:16:55;;;;;;;4.80;4.40;;;13.40;99.90;;;;;;5030209;28;20440;-62
2023/08/30 05:19:22;;;;;;;5.97;5.00;;;13.40;99.90;;;;;;5030775;28;20449;-63
2023/08/30 05:21:51;;;;;;;5.10;4.80;;;13.50;99.90;;;;;;5030894;28;20540;-62
2023/08/30 05:24:18;;;;;;;4.50;4.10;;;13.50;99.90;;;;;;5030885;28;20540;-63
2023/08/30 05:26:46;;;;;;;5.03;4.53;;;13.50;99.90;;;;;;5029949;28;20579;-62
2023/08/30 05:29:13;;;;;;;5.40;4.07;;;13.60;99.90;;;;;;5030774;28;20886;-63
2023/08/30 05:31:40;;;;;;;4.70;4.30;;;13.60;99.90;;;;;;5030801;28;20880;-63
2023/08/30 05:34:07;;;;;;;5.13;4.80;;;13.70;99.90;;;;;;5030984;28;20462;-63
2023/08/30 05:36:34;;;;;;;5.03;4.53;;;13.70;99.90;;;;;;5030224;28;20445;-63
2023/08/30 05:39:01;;;;;;;4.63;4.23;;;13.70;99.90;;;;;;5030755;28;20564;-63
2023/08/30 05:41:27;;;;;;;5.13;4.73;;;13.70;99.90;;;;;;5030610;28;20453;-62
2023/08/30 05:43:56;;;;;;;5.20;4.70;;;13.70;99.90;;;;;;5030627;28;20453;-62
2023/08/30 05:46:23;;;;;;;4.77;4.40;;;13.70;99.90;;;;;;5029620;28;20485;-63
2023/08/30 05:48:50;;;;;;;4.43;4.07;;;13.70;99.90;;;;;;5030445;28;20479;-63
2023/08/30 05:51:17;;;;;;;4.57;4.27;;;13.80;99.90;;;;;;5030516;28;20459;-63
2023/08/30 05:53:43;;;;;;;4.30;3.90;;;13.80;99.90;;;;;;5000366;28;21066;-62
2023/08/30 05:56:10;;;;;;;5.20;4.50;;;13.80;99.90;;;;;;4990428;28;20453;-63
2023/08/30 05:58:37;;;;;;;5.67;5.17;;;13.90;99.90;;;;;;4990546;28;20995;-63
2023/08/30 06:01:07;;;;;;;8.40;6.30;;;13.90;99.90;;;;;;4990836;28;21111;-62
2023/08/30 06:03:34;;;;;;;6.23;5.63;;;14.00;99.90;;;;;;4998168;28;20450;-63
2023/08/30 06:06:01;;;;;;;7.10;6.40;;;14.00;99.90;;;;;;5009002;28;20502;-63
2023/08/30 06:08:28;;;;;;;6.80;5.83;;;14.00;99.90;;;;;;5009561;28;20473;-63
2023/08/30 06:10:55;;;;;;;6.40;5.90;;;14.00;99.90;;;;;;5010660;28;20458;-62
2023/08/30 06:13:21;;;;;;;6.00;5.50;;;14.00;99.90;;;;;;5010083;28;20451;-63
2023/08/30 06:15:51;;;;;;;5.80;5.40;;;14.10;99.90;;;;;;5010284;28;20446;-63
2023/08/30 06:18:20;;;;;;;5.80;5.40;;;14.10;99.90;;;;;;5009574;28;20509;-63
2023/08/30 06:20:47;;;;;;;5.67;5.27;;;14.10;99.90;;;;;;5010412;28;20450;-63
2023/08/30 06:23:15;;;;;;;5.80;5.30;;;14.20;99.90;;;;;;5010049;28;21015;-63
2023/08/30 06:25:42;;;;;;;7.33;6.60;;;14.30;99.90;;;;;;5009663;28;21038;-62
2023/08/30 06:28:09;;;;;;;6.03;5.63;;;14.40;99.90;;;;;;5009149;28;21097;-63
2023/08/30 06:30:36;;;;;;;6.03;5.43;;;14.40;99.90;;;;;;5009969;28;20544;-63
2023/08/30 06:33:03;;;;;;;7.17;6.67;;;14.50;99.90;;;;;;5010139;28;20450;-63
2023/08/30 06:35:31;;;;;;;10.37;7.60;;;14.50;99.90;;;;;;5009857;28;20486;-63
2023/08/30 06:37:58;;;;;;;8.07;7.27;;;14.60;99.90;;;;;;5009021;28;20552;-63
2023/08/30 06:40:26;;;;;;;7.67;6.97;;;14.60;99.90;;;;;;5009578;28;20454;-62
2023/08/30 06:42:52;;;;;;;7.20;6.70;;;14.70;99.90;;;;;;5009381;28;20888;-63
2023/08/30 06:45:20;;;;;;;8.17;7.47;;;14.70;99.90;;;;;;5009680;28;20533;-62
2023/08/30 06:47:49;;;;;;;9.57;8.63;;;14.80;99.90;;;;;;5008536;28;20489;-62
2023/08/30 06:50:16;;;;;;;9.50;8.70;;;14.80;99.90;;;;;;5009350;28;20553;-63
2023/08/30 06:52:44;;;;;;;8.63;8.03;;;14.90;99.90;;;;;;5009248;28;20565;-63
2023/08/30 06:55:11;;;;;;;9.13;7.87;;;14.90;99.90;;;;;;5009509;28;20454;-62
2023/08/30 06:57:38;;;;;;;8.87;7.90;;;15.00;99.90;;;;;;5008594;28;21059;-62
2023/08/30 07:00:07;;;;;;;7.97;7.40;;;15.00;99.90;;;;;;5009845;28;20480;-62
2023/08/30 07:02:35;;;;;;;8.17;7.57;;;15.00;99.90;;;;;;5009370;28;21002;-63
2023/08/30 07:05:04;;;;;;;9.27;8.57;;;15.10;99.90;;;;;;5009467;28;20449;-62
2023/08/30 07:07:30;;;;;;;8.00;7.40;;;15.20;99.90;;;;;;5008333;28;20541;-63
2023/08/30 07:09:59;;;;;;;9.80;8.97;;;15.20;99.90;;;;;;5009527;28;20442;-62
2023/08/30 07:12:26;;;;;;;8.23;7.53;;;15.30;99.90;;;;;;5009144;28;20545;-63
2023/08/30 07:14:54;;;;;;;10.17;9.30;;;15.40;99.90;;;;;;5009434;28;21291;-63
2023/08/30 07:17:21;;;;;;;9.67;8.83;;;15.40;99.90;;;;;;5007739;28;20831;-63
2023/08/30 07:19:48;;;;;;;12.37;11.17;;;15.50;99.90;;;;;;5006241;28;20456;-63
2023/08/30 07:22:16;;;;;;;11.07;10.17;;;15.60;99.90;;;;;;5008890;28;20452;-63
2023/08/30 07:24:43;;;;;;;12.03;10.93;;;15.60;99.90;;;;;;5009147;28;20545;-62
2023/08/30 07:27:12;;;;;;;11.20;10.10;;;15.70;99.90;;;;;;5008454;28;20494;-63
2023/08/30 07:29:40;;;;;;;12.53;11.33;;;15.70;99.90;;;;;;5008928;28;20955;-63
2023/08/30 07:32:07;;;;;;;10.10;9.27;;;15.70;99.90;;;;;;5008947;28;20513;-63
2023/08/30 07:34:33;;;;;;;10.83;9.83;;;15.80;99.90;;;;;;5008785;28;20946;-63
2023/08/30 07:37:00;;;;;;;10.80;9.70;;;15.90;99.90;;;;;;5005262;28;20557;-63
2023/08/30 07:39:27;;;;;;;12.47;11.37;;;15.90;99.90;;;;;;5007764;28;20541;-63
2023/08/30 07:41:54;;;;;;;12.83;11.63;;;16.00;99.90;;;;;;5008542;28;20458;-63
2023/08/30 07:44:22;;;;;;;11.63;10.60;;;16.00;99.90;;;;;;5006157;28;21016;-63
2023/08/30 07:46:49;;;;;;;13.80;11.30;;;16.00;99.90;;;;;;5007292;28;20482;-63
2023/08/30 07:49:16;;;;;;;10.23;9.23;;;16.20;99.90;;;;;;5008267;28;20476;-64
2023/08/30 07:51:43;;;;;;;12.03;11.03;;;16.20;99.90;;;;;;5008331;28;20451;-63
2023/08/30 07:54:10;;;;;;;12.80;11.80;;;16.30;99.90;;;;;;5008132;28;20944;-63
2023/08/30 07:56:36;;;;;;;13.30;12.20;;;16.30;99.90;;;;;;5006407;28;20439;-63
2023/08/30 07:59:04;;;;;;;12.43;11.43;;;16.30;99.90;;;;;;5006605;28;20997;-63
2023/08/30 08:01:32;;;;;;;12.93;11.73;;;16.30;99.90;;;;;;5007111;28;20530;-63
2023/08/30 08:03:59;;;;;;;12.40;11.33;;;16.40;99.90;;;;;;5007136;28;20521;-63
2023/08/30 08:06:25;;;;;;;11.70;10.70;;;16.40;99.90;;;;;;5010177;28;20488;-63
2023/08/30 08:08:52;;;;;;;11.37;10.27;;;16.40;99.90;;;;;;5011048;28;20864;-64
2023/08/30 08:11:19;;;;;;;11.70;10.80;;;16.50;99.90;;;;;;5011424;28;20452;-63
2023/08/30 08:13:46;;;;;;;12.30;11.40;;;16.60;99.90;;;;;;5012151;28;20454;-63
2023/08/30 08:16:13;;;;;;;13.43;12.20;;;16.60;99.90;;;;;;5010842;28;20461;-63
2023/08/30 08:18:41;;;;;;;12.37;11.27;;;16.70;99.90;;;;;;5011199;28;21071;-63
2023/08/30 08:21:08;;;;;;;13.73;12.63;;;16.70;99.90;;;;;;5011570;28;20456;-63
2023/08/30 08:23:35;;;;;;;13.00;12.00;;;16.70;99.90;;;;;;5011903;28;20473;-63
2023/08/30 08:26:02;;;;;;;12.33;11.30;;;16.80;99.90;;;;;;5010037;28;20827;-63
2023/08/30 08:28:29;;;;;;;11.97;11.07;;;16.90;99.90;;;;;;5010395;28;20503;-63
2023/08/30 08:30:56;;;;;;;11.97;10.77;;;17.00;99.90;;;;;;5004625;28;20514;-63
2023/08/30 08:33:24;;;;;;;11.83;10.97;;;17.10;99.90;;;;;;4994264;28;20531;-63
2023/08/30 08:35:52;;;;;;;13.10;11.97;;;17.20;99.90;;;;;;5004503;28;20455;-64
2023/08/30 08:38:19;;;;;;;13.13;12.07;;;17.30;99.90;;;;;;5001435;28;20923;-63
2023/08/30 08:40:46;;;;;;;10.20;9.40;;;17.50;99.90;;;;;;4996567;28;20460;-63
2023/08/30 08:43:13;;;;;;;12.27;11.07;;;17.50;99.90;;;;;;5010736;28;20778;-63
2023/08/30 08:45:40;;;;;;;11.00;9.97;;;17.60;99.90;;;;;;5021561;28;20543;-64
2023/08/30 08:48:08;;;;;;;10.73;9.63;;;17.70;99.90;;;;;;5023665;28;20948;-64
2023/08/30 08:50:35;;;;;;;10.77;9.87;;;17.90;99.90;;;;;;5017588;28;20460;-63
2023/08/30 08:53:04;;;;;;;10.30;9.30;;;18.00;99.90;;;;;;4995424;28;20545;-64
2023/08/30 08:55:32;;;;;;;11.17;10.30;;;18.10;99.90;;;;;;5007020;28;20450;-64
2023/08/30 08:57:59;;;;;;;10.27;9.37;;;18.20;99.90;;;;;;5002433;28;21043;-64
2023/08/30 09:00:27;;;;;;;10.80;9.87;;;18.20;99.90;;;;;;5026641;28;20462;-64
2023/08/30 09:02:55;;;;;;;11.73;10.60;;;18.40;99.90;;;;;;5015354;28;20475;-63
2023/08/30 09:05:22;;;;;;;11.70;10.60;;;18.50;99.90;;;;;;4994464;28;20450;-63
2023/08/30 09:07:53;;;;;;;12.40;10.80;;;18.50;99.90;;;;;;5003493;28;20497;-63
2023/08/30 09:10:21;;;;;;;9.53;8.73;;;18.60;99.90;;;;;;5001487;28;20922;-63
2023/08/30 09:12:48;;;;;;;9.87;9.07;;;18.70;99.90;;;;;;4996160;28;20543;-63
2023/08/30 09:15:16;;;;;;;10.47;9.67;;;18.80;99.90;;;;;;5007042;28;21001;-63
2023/08/30 09:17:43;;;;;;;10.57;9.53;;;18.90;99.90;;;;;;4995887;28;20462;-63
2023/08/30 09:20:12;;;;;;;10.43;9.53;;;18.90;99.90;;;;;;5000713;28;20844;-63
2023/08/30 09:22:40;;;;;;;9.83;8.97;;;19.00;99.90;;;;;;5004225;28;20480;-63
2023/08/30 09:25:09;;;;;;;10.97;10.07;;;19.00;99.90;;;;;;4994284;28;20545;-63
2023/08/30 09:27:41;;;;;;;9.97;9.17;;;19.10;99.90;;;;;;5003806;28;20968;-63
2023/08/30 09:30:10;;;;;;;11.33;10.33;;;19.30;99.90;;;;;;4993738;28;20454;-63
2023/08/30 09:32:41;;;;;;;12.47;11.47;;;19.40;99.90;;;;;;4990322;28;20884;-63
2023/08/30 09:35:09;;;;;;;11.70;10.70;;;19.40;99.90;;;;;;5006746;28;20453;-64
2023/08/30 09:37:37;;;;;;;11.33;10.43;;;19.40;99.90;;;;;;4994065;28;20465;-63
2023/08/30 09:40:05;;;;;;;10.93;10.10;;;19.40;99.90;;;;;;5009360;28;20452;-63
2023/08/30 09:42:32;;;;;;;9.87;9.07;;;19.50;99.90;;;;;;4997882;28;20568;-63
2023/08/30 09:45:00;;;;;;;11.83;10.93;;;19.60;99.90;;;;;;5006044;28;20881;-63
2023/08/30 09:47:28;;;;;;;12.17;11.17;;;19.60;99.90;;;;;;5017650;28;20573;-63
2023/08/30 09:49:56;;;;;;;12.37;11.17;;;19.60;99.90;;;;;;4997932;28;20553;-63
2023/08/30 09:52:25;;;;;;;12.80;11.70;;;19.70;99.90;;;;;;5000053;28;20480;-63
2023/08/30 09:54:53;;;;;;;12.70;11.60;;;19.80;99.90;;;;;;4993669;28;20836;-63
2023/08/30 09:57:22;;;;;;;13.17;12.07;;;19.90;99.90;;;;;;5004266;28;20483;-63
2023/08/30 09:59:50;;;;;;;10.63;9.83;;;20.00;99.90;;;;;;4995229;28;20473;-63
2023/08/30 10:02:19;;;;;;;13.63;12.33;;;20.10;99.90;;;;;;4998538;28;20516;-63
2023/08/30 10:04:46;;;;;;;13.67;12.47;;;20.10;99.90;;;;;;5002660;28;20889;-63
2023/08/30 10:07:14;;;;;;;14.13;12.10;;;20.10;99.90;;;;;;4991428;28;20489;-63
2023/08/30 10:09:42;;;;;;;12.00;10.97;;;20.20;99.90;;;;;;5002911;28;20531;-63
2023/08/30 10:12:11;;;;;;;12.53;11.53;;;20.30;99.90;;;;;;4998153;28;20450;-64
2023/08/30 10:14:38;;;;;;;12.83;11.70;;;20.30;99.90;;;;;;4995908;28;20533;-63
2023/08/30 10:17:09;;;;;;;11.87;10.63;;;20.40;99.90;;;;;;5005610;28;20962;-63
2023/08/30 10:19:38;;;;;;;11.20;10.30;;;20.40;99.90;;;;;;5004036;28;20451;-63
2023/08/30 10:22:08;;;;;;;10.70;9.83;;;20.30;99.90;;;;;;4996673;28;20424;-63
2023/08/30 10:24:40;;;;;;;10.63;9.43;;;20.30;99.90;;;;;;4999292;28;20466;-63
2023/08/30 10:27:09;;;;;;;10.60;9.70;;;20.30;99.90;;;;;;5011192;28;20521;-63
2023/08/30 10:29:38;;;;;;;8.73;8.10;;;20.40;99.90;;;;;;5014179;28;20457;-63
2023/08/30 10:32:05;;;;;;;9.93;9.03;;;20.40;99.90;;;;;;5011896;28;20456;-64
2023/08/30 10:34:34;;;;;;;10.03;9.23;;;20.50;99.90;;;;;;5021581;28;21005;-63
2023/08/30 10:37:03;;;;;;;9.37;8.60;;;20.70;99.90;;;;;;5013609;28;20460;-63
2023/08/30 10:39:36;;;;;;;10.13;9.33;;;20.80;99.90;;;;;;5010378;28;20472;-63
2023/08/30 10:42:09;;;;;;;9.90;9.00;;;20.80;99.90;;;;;;5014758;28;20548;-63
2023/08/30 10:44:47;;;;;;;9.17;8.37;;;20.80;99.90;;;;;;5022773;28;20494;-64
2023/08/30 10:47:19;;;;;;;8.07;7.57;;;20.90;99.90;;;;;;5012037;28;20489;-63
2023/08/30 10:49:48;;;;;;;7.03;6.53;;;20.90;99.90;;;;;;5022870;28;20533;-63
2023/08/30 10:52:16;;;;;;;7.30;6.67;;;20.80;99.90;;;;;;5016599;28;20461;-63
2023/08/30 10:54:43;;;;;;;7.30;6.80;;;20.90;99.90;;;;;;5024049;28;21028;-64
2023/08/30 10:57:15;;;;;;;8.40;7.70;;;20.90;99.90;;;;;;5014720;28;21031;-64
2023/08/30 10:59:48;;;;;;;7.17;6.67;;;20.80;99.90;;;;;;5022245;28;20456;-63
2023/08/30 11:02:16;;;;;;;9.00;7.63;;;20.70;99.90;;;;;;5013070;28;20455;-63
2023/08/30 11:04:43;;;;;;;7.60;7.10;;;20.60;99.90;;;;;;5013319;28;20985;-63
2023/08/30 11:07:11;;;;;;;7.23;6.73;;;20.50;99.90;;;;;;5014310;28;21004;-63
2023/08/30 11:09:41;;;;;;;7.90;7.30;;;20.40;99.90;;;;;;5021330;28;20454;-63
2023/08/30 11:12:08;;;;;;;7.50;7.00;;;20.30;99.90;;;;;;5015635;28;20471;-64
2023/08/30 11:14:36;;;;;;;7.70;7.10;;;20.30;99.90;;;;;;5019101;28;20887;-63
2023/08/30 11:17:03;;;;;;;10.30;9.40;;;20.20;99.90;;;;;;5013972;28;20459;-63
2023/08/30 11:19:32;;;;;;;8.20;7.50;;;20.20;99.90;;;;;;5020091;28;20450;-63
2023/08/30 11:21:59;;;;;;;8.53;7.93;;;20.10;99.90;;;;;;5013802;28;20450;-63
2023/08/30 11:24:25;;;;;;;14.43;8.80;;;20.10;99.90;;;;;;5010257;28;20481;-63
2023/08/30 11:26:55;;;;;;;8.23;7.73;;;20.20;99.90;;;;;;5013728;28;20453;-63
2023/08/30 11:29:22;;;;;;;7.63;7.20;;;20.30;99.90;;;;;;5017120;28;20997;-63
2023/08/30 11:31:50;;;;;;;8.07;7.47;;;20.40;99.90;;;;;;5015232;28;20467;-63
2023/08/30 11:34:21;;;;;;;7.73;7.23;;;20.50;99.90;;;;;;5023026;28;21188;-63
2023/08/30 11:36:49;;;;;;;8.93;8.33;;;20.60;99.90;;;;;;5009490;28;20469;-63
2023/08/30 11:39:16;;;;;;;6.70;6.30;;;20.60;99.90;;;;;;5016399;28;20545;-63
2023/08/30 11:41:43;;;;;;;7.70;7.07;;;20.70;99.90;;;;;;5016351;28;20458;-63
2023/08/30 11:44:11;;;;;;;8.10;7.23;;;20.90;99.90;;;;;;5023420;28;20444;-63
2023/08/30 11:46:38;;;;;;;6.40;6.00;;;21.00;99.90;;;;;;5021505;28;20458;-63
2023/08/30 11:49:05;;;;;;;7.37;6.73;;;21.10;99.90;;;;;;5022011;28;20488;-63
2023/08/30 11:51:33;;;;;;;6.90;6.40;;;21.10;99.90;;;;;;5019993;28;20449;-63
2023/08/30 11:54:02;;;;;;;7.90;7.40;;;21.10;99.90;;;;;;5018341;28;20450;-63
2023/08/30 11:56:29;;;;;;;7.20;6.80;;;21.10;99.90;;;;;;4994442;28;20999;-63
2023/08/30 11:58:56;;;;;;;6.80;6.30;;;21.10;99.90;;;;;;5002748;28;20472;-63
2023/08/30 12:01:24;;;;;;;8.00;7.30;;;21.10;99.90;;;;;;5006388;28;20884;-64
2023/08/30 12:03:51;;;;;;;7.80;7.07;;;21.10;99.90;;;;;;5019135;28;20859;-63
2023/08/30 12:06:18;;;;;;;6.90;6.50;;;21.10;99.90;;;;;;4995931;28;20447;-64
2023/08/30 12:08:45;;;;;;;6.60;6.10;;;21.20;99.90;;;;;;5001298;28;20496;-63
2023/08/30 12:11:20;;;;;;;7.77;7.17;;;21.20;99.90;;;;;;5001199;28;20529;-63
2023/08/30 12:13:47;;;;;;;6.80;6.40;;;21.20;99.90;;;;;;4993488;28;20868;-63
2023/08/30 12:16:17;;;;;;;7.40;6.70;;;21.20;99.90;;;;;;4996354;28;20451;-64
2023/08/30 12:18:46;;;;;;;6.67;6.27;;;21.20;99.90;;;;;;5001503;28;20846;-64
2023/08/30 12:21:15;;;;;;;5.87;5.57;;;21.10;99.90;;;;;;4991022;28;20452;-63
2023/08/30 12:23:42;;;;;;;7.33;6.87;;;21.10;99.90;;;;;;5001645;28;20451;-63
2023/08/30 12:26:10;;;;;;;6.27;5.80;;;21.00;99.90;;;;;;5011512;28;20809;-63
2023/08/30 12:28:38;;;;;;;6.10;5.80;;;20.80;99.90;;;;;;4994824;28;20503;-63
2023/08/30 12:31:06;;;;;;;6.80;6.40;;;20.80;99.90;;;;;;5001746;28;20455;-63
2023/08/30 12:33:34;;;;;;;7.10;6.40;;;20.60;99.90;;;;;;4990981;28;20469;-63
2023/08/30 12:36:03;;;;;;;7.70;7.10;;;20.50;99.90;;;;;;4997397;28;20457;-64
2023/08/30 12:38:30;;;;;;;7.70;7.10;;;20.40;99.90;;;;;;5000682;28;20472;-64
2023/08/30 12:40:58;;;;;;;9.97;9.07;;;20.20;99.90;;;;;;5023095;28;21009;-64
2023/08/30 12:43:25;;;;;;;11.70;10.10;;;20.00;99.90;;;;;;5011795;28;20449;-64
2023/08/30 12:45:52;;;;;;;16.70;13.50;;;19.70;99.90;;;;;;5019327;28;20846;-64